CYKACYLW

Guest
Details From CYKA - Kamloops
To CYLW - Kelowna
Flight Number -
Tags generated
Created
Modified
Stats Distance 61 nm / 113 km
Max Altitude 6,400 ft / 1,951 m
Waypoints 3
Social Downloads 0
Likes 0
Share VATSIM

Download

Looking for another format? Having issues loading an existing format? Contact us
Advertisement - Login to hide

Notes

Basic altitude profile: - Ascent Rate: 2500ft/min - Ascent Speed: 250kts - Cruise Altitude: 35000ft - Cruise Speed: 420kts - Descent Rate: 1500ft/min - Descent Speed: 250kts Options: - Use NATs: no - Use PACOTS: no - Use low airways: yes - Use high airways: no

Route

CYKA STUMM CYLW

ID Type Via Altitude Latitude Longitude Leg Dist Tot Dist Heading (true) Name
O CYKA APT - 0 ft / 0 m 50.70187˚ -120.44271˚ - 0 nm - Kamloops
STUMM FIX - 6,400 ft / 1,951 m 50.35500˚ -119.84944˚ 30 nm 30 nm 132° / 133° -
O CYLW APT - 0 ft / 0 m 49.95612˚ -119.37776˚ 30 nm 60 nm 143° / 143° Kelowna

Altitude Profile

Advertisement - Login to hide

CYKA

Details ICAO CYKA (YKA)
Name Kamloops
Region Canada
Timezone America/Vancouver (UTC-8.0)
Stats Elevation 1,133 ft / 345 m (AMSL)
Location 50.701875° -120.442709°
Runways 2
Magnetic Variation 16.081° E

METAR

CYKA 122200Z 08006KT 40SM FEW130 BKN260 02/M04 A3051 RMK AC2CI3 SLP352

Decode

TAF

TAF CYKA 121838Z 1219/1307 09005KT P6SM FEW020 BKN140 BKN220 RMK NXT FCST BY 130100Z

Decode

Departure Runways

ID Width Length Bearing (true) Bearing (mag) Surface Threshold Offset Overrun Length
04 49 ft / 15 m 2,815 ft / 858 m 61.02° 44.94° Asphalt 686 ft / 209 m 0 ft / 0 m
08 148 ft / 45 m 5,999 ft / 1,828 m 103.28° 87.20° Asphalt 0 ft / 0 m 0 ft / 0 m
22 49 ft / 15 m 2,815 ft / 858 m 241.03° 224.95° Asphalt 0 ft / 0 m 0 ft / 0 m
26 148 ft / 45 m 5,999 ft / 1,828 m 283.30° 267.22° Asphalt 0 ft / 0 m 0 ft / 0 m

CYLW

Details ICAO CYLW (YLW)
Name Kelowna
Region Canada
Timezone America/Vancouver (UTC-8.0)
Stats Elevation 1,409 ft / 429 m (AMSL)
Location 49.956117° -119.377757°
Runways 1
Magnetic Variation 15.634° E

METAR

CYLW 122218Z AUTO 18006KT 9SM BKN023 01/M04 A3051 RMK SLP355

Decode

TAF

TAF AMD CYLW 122209Z 1222/1307 18005KT P6SM SCT025 BKN220 TEMPO 1222/1304 BKN020 FM130400 VRB03KT P6SM OVC020 RMK FCST BASED ON AUTO OBS. NXT FCST BY 130100Z

Decode

Destination Runways

ID Width Length Bearing (true) Bearing (mag) Surface Threshold Offset Overrun Length
16 200 ft / 61 m 7,299 ft / 2,225 m 174.89° 159.26° Asphalt 0 ft / 0 m 0 ft / 0 m
34 200 ft / 61 m 7,299 ft / 2,225 m 354.89° 339.26° Asphalt 0 ft / 0 m 0 ft / 0 m

Approach Navaids

Runway Type Ident Frequency Range Bearing (true) Bearing (mag) Slope Elevation
16 Localiser ILW 111.30 MHz 18 nm / 33 km 174.87° 159.24° - 1,049 ft / 320 m (AMSL)
16 Glidescope ILW 111.30 MHz 10 nm / 19 km 174.89° 159.25° 3.20° 1,409 ft / 429 m (AMSL)
16 DME ILW 111.30 MHz 18 nm / 33 km - - - 1,409 ft / 429 m (AMSL)

Popular Alternatives